sensor_id;sensor_type;location;lat;lon;timestamp;pressure;altitude;pressure_sealevel;temperature;humidity
62038;BME280;47991;42.974;12.082;2024-03-25T00:01:42;96984.00;;;5.05;73.89
62038;BME280;47991;42.974;12.082;2024-03-25T00:04:09;96982.11;;;4.85;73.97
62038;BME280;47991;42.974;12.082;2024-03-25T00:06:36;96984.17;;;4.76;73.90
62038;BME280;47991;42.974;12.082;2024-03-25T00:09:04;96990.29;;;4.78;73.61
62038;BME280;47991;42.974;12.082;2024-03-25T00:11:31;96998.02;;;4.86;73.56
62038;BME280;47991;42.974;12.082;2024-03-25T00:13:59;96999.40;;;4.78;74.01
62038;BME280;47991;42.974;12.082;2024-03-25T00:16:26;96998.92;;;4.65;73.79
62038;BME280;47991;42.974;12.082;2024-03-25T00:18:54;96997.40;;;4.61;74.53
62038;BME280;47991;42.974;12.082;2024-03-25T00:21:21;96996.57;;;4.69;73.89
62038;BME280;47991;42.974;12.082;2024-03-25T00:23:48;96996.28;;;4.75;73.17
62038;BME280;47991;42.974;12.082;2024-03-25T00:26:15;96989.70;;;4.81;72.83
62038;BME280;47991;42.974;12.082;2024-03-25T00:28:42;96985.83;;;4.82;77.95
62038;BME280;47991;42.974;12.082;2024-03-25T00:31:09;96977.90;;;4.75;78.34
62038;BME280;47991;42.974;12.082;2024-03-25T00:33:36;96971.95;;;4.76;75.23
62038;BME280;47991;42.974;12.082;2024-03-25T00:36:04;96963.21;;;4.84;74.53
62038;BME280;47991;42.974;12.082;2024-03-25T00:38:32;96962.99;;;4.86;74.74
62038;BME280;47991;42.974;12.082;2024-03-25T00:40:59;96966.88;;;4.75;74.69
62038;BME280;47991;42.974;12.082;2024-03-25T00:43:26;96970.55;;;4.55;75.46
62038;BME280;47991;42.974;12.082;2024-03-25T00:45:53;96970.17;;;4.47;75.72
62038;BME280;47991;42.974;12.082;2024-03-25T00:48:20;96968.04;;;4.39;76.14
62038;BME280;47991;42.974;12.082;2024-03-25T00:50:47;96966.65;;;4.27;75.14
62038;BME280;47991;42.974;12.082;2024-03-25T00:53:14;96970.40;;;4.22;75.28
62038;BME280;47991;42.974;12.082;2024-03-25T00:55:41;96972.69;;;4.22;76.36
62038;BME280;47991;42.974;12.082;2024-03-25T00:58:08;96973.89;;;4.11;76.70
62038;BME280;47991;42.974;12.082;2024-03-25T01:00:35;96972.22;;;3.95;75.86
62038;BME280;47991;42.974;12.082;2024-03-25T01:03:03;96972.77;;;3.94;75.49
62038;BME280;47991;42.974;12.082;2024-03-25T01:05:30;96974.27;;;3.98;75.05
62038;BME280;47991;42.974;12.082;2024-03-25T01:07:58;96973.23;;;3.97;74.77
62038;BME280;47991;42.974;12.082;2024-03-25T01:10:25;96966.26;;;3.84;75.42
62038;BME280;47991;42.974;12.082;2024-03-25T01:12:53;96968.56;;;3.70;75.01
62038;BME280;47991;42.974;12.082;2024-03-25T01:15:20;96972.77;;;3.68;75.14
62038;BME280;47991;42.974;12.082;2024-03-25T01:17:47;96970.01;;;3.66;75.59
62038;BME280;47991;42.974;12.082;2024-03-25T01:20:14;96970.02;;;3.65;75.30
62038;BME280;47991;42.974;12.082;2024-03-25T01:22:41;96971.59;;;3.66;75.61
62038;BME280;47991;42.974;12.082;2024-03-25T01:25:08;96966.04;;;3.62;76.55
62038;BME280;47991;42.974;12.082;2024-03-25T01:27:36;96966.77;;;3.61;76.44
62038;BME280;47991;42.974;12.082;2024-03-25T01:30:04;96968.23;;;3.68;75.77
62038;BME280;47991;42.974;12.082;2024-03-25T01:32:31;96968.89;;;3.71;75.78
62038;BME280;47991;42.974;12.082;2024-03-25T01:34:59;96972.12;;;3.65;77.04
62038;BME280;47991;42.974;12.082;2024-03-25T01:37:26;96971.52;;;3.59;77.13
62038;BME280;47991;42.974;12.082;2024-03-25T01:39:54;96967.94;;;3.51;79.31
62038;BME280;47991;42.974;12.082;2024-03-25T01:42:21;96965.65;;;3.52;78.01
62038;BME280;47991;42.974;12.082;2024-03-25T01:44:48;96959.54;;;3.52;77.95
62038;BME280;47991;42.974;12.082;2024-03-25T01:47:15;96956.61;;;3.49;76.52
62038;BME280;47991;42.974;12.082;2024-03-25T01:49:43;96957.97;;;3.52;77.22
62038;BME280;47991;42.974;12.082;2024-03-25T01:52:10;96960.77;;;3.51;77.61
62038;BME280;47991;42.974;12.082;2024-03-25T01:54:38;96955.41;;;3.60;77.34
62038;BME280;47991;42.974;12.082;2024-03-25T01:57:06;96954.87;;;3.85;77.41
62038;BME280;47991;42.974;12.082;2024-03-25T01:59:34;96951.27;;;3.81;77.76
62038;BME280;47991;42.974;12.082;2024-03-25T02:02:01;96950.41;;;3.68;77.94
62038;BME280;47991;42.974;12.082;2024-03-25T02:04:29;96948.14;;;3.55;78.44
62038;BME280;47991;42.974;12.082;2024-03-25T02:06:56;96947.70;;;3.48;77.05
62038;BME280;47991;42.974;12.082;2024-03-25T02:09:26;96947.30;;;3.39;77.62
62038;BME280;47991;42.974;12.082;2024-03-25T02:11:55;96953.75;;;3.27;78.74
62038;BME280;47991;42.974;12.082;2024-03-25T02:14:22;96954.77;;;3.16;79.98
62038;BME280;47991;42.974;12.082;2024-03-25T02:16:49;96958.14;;;3.10;79.60
62038;BME280;47991;42.974;12.082;2024-03-25T02:19:18;96960.41;;;3.10;80.50
62038;BME280;47991;42.974;12.082;2024-03-25T02:21:45;96964.41;;;3.12;79.87
62038;BME280;47991;42.974;12.082;2024-03-25T02:24:14;96965.81;;;3.11;79.50
62038;BME280;47991;42.974;12.082;2024-03-25T02:26:42;96964.43;;;3.10;78.94
62038;BME280;47991;42.974;12.082;2024-03-25T02:29:11;96968.60;;;3.11;79.20
62038;BME280;47991;42.974;12.082;2024-03-25T02:31:38;96966.16;;;3.11;79.27
62038;BME280;47991;42.974;12.082;2024-03-25T02:34:05;96966.78;;;3.04;80.68
62038;BME280;47991;42.974;12.082;2024-03-25T02:36:32;96972.23;;;3.01;80.01
62038;BME280;47991;42.974;12.082;2024-03-25T02:38:59;96972.38;;;3.02;79.75
62038;BME280;47991;42.974;12.082;2024-03-25T02:41:26;96972.88;;;3.04;79.33
62038;BME280;47991;42.974;12.082;2024-03-25T02:43:57;96974.30;;;3.04;80.39
62038;BME280;47991;42.974;12.082;2024-03-25T02:46:24;96972.33;;;3.07;80.74
62038;BME280;47991;42.974;12.082;2024-03-25T02:48:51;96971.95;;;3.09;79.88
62038;BME280;47991;42.974;12.082;2024-03-25T02:51:18;96972.67;;;3.07;80.09
62038;BME280;47991;42.974;12.082;2024-03-25T02:53:45;96971.91;;;2.97;80.01
62038;BME280;47991;42.974;12.082;2024-03-25T02:56:13;96972.16;;;2.90;79.65
62038;BME280;47991;42.974;12.082;2024-03-25T02:58:40;96972.36;;;2.88;80.74
62038;BME280;47991;42.974;12.082;2024-03-25T03:01:07;96969.00;;;2.91;80.69
62038;BME280;47991;42.974;12.082;2024-03-25T03:03:34;96968.30;;;2.93;80.66
62038;BME280;47991;42.974;12.082;2024-03-25T03:06:01;96964.48;;;2.91;82.27
62038;BME280;47991;42.974;12.082;2024-03-25T03:08:28;96959.77;;;2.90;81.02
62038;BME280;47991;42.974;12.082;2024-03-25T03:10:56;96955.35;;;2.94;80.08
62038;BME280;47991;42.974;12.082;2024-03-25T03:13:23;96956.20;;;2.97;81.11
62038;BME280;47991;42.974;12.082;2024-03-25T03:15:50;96959.92;;;2.92;81.08
62038;BME280;47991;42.974;12.082;2024-03-25T03:18:17;96969.44;;;2.85;81.69
62038;BME280;47991;42.974;12.082;2024-03-25T03:20:44;96975.60;;;2.78;82.45
62038;BME280;47991;42.974;12.082;2024-03-25T03:23:11;96984.56;;;2.73;83.07
62038;BME280;47991;42.974;12.082;2024-03-25T03:25:40;96985.47;;;2.69;83.61
62038;BME280;47991;42.974;12.082;2024-03-25T03:28:08;96986.01;;;2.69;82.02
62038;BME280;47991;42.974;12.082;2024-03-25T03:30:35;96984.95;;;2.69;83.40
62038;BME280;47991;42.974;12.082;2024-03-25T03:33:02;96978.00;;;2.66;82.89
62038;BME280;47991;42.974;12.082;2024-03-25T03:35:29;96983.02;;;2.70;81.86
62038;BME280;47991;42.974;12.082;2024-03-25T03:37:56;96984.39;;;2.73;81.35
62038;BME280;47991;42.974;12.082;2024-03-25T03:40:23;96983.25;;;2.64;82.03
62038;BME280;47991;42.974;12.082;2024-03-25T03:42:51;96986.62;;;2.57;81.97
62038;BME280;47991;42.974;12.082;2024-03-25T03:45:18;96984.71;;;2.57;82.48
62038;BME280;47991;42.974;12.082;2024-03-25T03:47:45;96986.31;;;2.54;81.93
62038;BME280;47991;42.974;12.082;2024-03-25T03:50:12;96983.91;;;2.49;82.34
62038;BME280;47991;42.974;12.082;2024-03-25T03:52:39;96986.88;;;2.50;81.99
62038;BME280;47991;42.974;12.082;2024-03-25T03:55:06;96993.26;;;2.37;82.13
62038;BME280;47991;42.974;12.082;2024-03-25T03:57:35;97005.56;;;2.27;83.59
62038;BME280;47991;42.974;12.082;2024-03-25T04:00:02;97009.09;;;2.22;83.91
62038;BME280;47991;42.974;12.082;2024-03-25T04:02:29;97008.40;;;2.20;84.11
62038;BME280;47991;42.974;12.082;2024-03-25T04:04:56;97005.08;;;2.21;83.07
62038;BME280;47991;42.974;12.082;2024-03-25T04:07:24;97001.05;;;2.22;83.85
62038;BME280;47991;42.974;12.082;2024-03-25T04:09:54;97003.88;;;2.19;83.58
62038;BME280;47991;42.974;12.082;2024-03-25T04:12:21;97004.25;;;2.16;82.99
62038;BME280;47991;42.974;12.082;2024-03-25T04:14:48;97004.41;;;2.16;82.94
62038;BME280;47991;42.974;12.082;2024-03-25T04:17:18;97005.80;;;2.19;83.51
62038;BME280;47991;42.974;12.082;2024-03-25T04:19:45;97008.77;;;2.18;83.88
62038;BME280;47991;42.974;12.082;2024-03-25T04:22:12;97013.86;;;2.13;82.98
62038;BME280;47991;42.974;12.082;2024-03-25T04:24:39;97017.54;;;2.11;83.41
62038;BME280;47991;42.974;12.082;2024-03-25T04:27:06;97015.08;;;2.14;84.25
62038;BME280;47991;42.974;12.082;2024-03-25T04:29:33;97015.55;;;2.18;85.01
62038;BME280;47991;42.974;12.082;2024-03-25T04:32:01;97014.35;;;2.17;84.21
62038;BME280;47991;42.974;12.082;2024-03-25T04:34:29;97016.48;;;2.11;84.41
62038;BME280;47991;42.974;12.082;2024-03-25T04:36:57;97011.10;;;2.09;83.32
62038;BME280;47991;42.974;12.082;2024-03-25T04:39:24;97012.98;;;2.13;84.69
62038;BME280;47991;42.974;12.082;2024-03-25T04:41:52;97010.55;;;2.13;84.30
62038;BME280;47991;42.974;12.082;2024-03-25T04:44:19;97008.79;;;2.15;83.46
62038;BME280;47991;42.974;12.082;2024-03-25T04:46:48;97009.69;;;2.12;83.37
62038;BME280;47991;42.974;12.082;2024-03-25T04:49:15;97006.73;;;2.08;83.86
62038;BME280;47991;42.974;12.082;2024-03-25T04:51:43;97000.31;;;2.05;83.69
62038;BME280;47991;42.974;12.082;2024-03-25T04:54:10;97000.66;;;2.05;84.56
62038;BME280;47991;42.974;12.082;2024-03-25T04:56:37;97001.00;;;2.06;84.83
62038;BME280;47991;42.974;12.082;2024-03-25T04:59:04;97003.08;;;2.07;84.93
62038;BME280;47991;42.974;12.082;2024-03-25T05:01:31;97004.98;;;2.11;84.47
62038;BME280;47991;42.974;12.082;2024-03-25T05:03:58;97010.19;;;2.14;85.84
62038;BME280;47991;42.974;12.082;2024-03-25T05:06:25;97013.16;;;2.13;84.74
62038;BME280;47991;42.974;12.082;2024-03-25T05:08:52;97016.69;;;2.08;85.98
62038;BME280;47991;42.974;12.082;2024-03-25T05:11:19;97023.14;;;2.06;84.63
62038;BME280;47991;42.974;12.082;2024-03-25T05:13:46;97039.72;;;2.05;84.49
62038;BME280;47991;42.974;12.082;2024-03-25T05:16:13;97048.10;;;2.02;85.06
62038;BME280;47991;42.974;12.082;2024-03-25T05:18:40;97060.84;;;2.01;84.56
62038;BME280;47991;42.974;12.082;2024-03-25T05:21:07;97066.77;;;2.02;84.30
62038;BME280;47991;42.974;12.082;2024-03-25T05:23:34;97077.07;;;2.27;84.88
62038;BME280;47991;42.974;12.082;2024-03-25T05:26:02;97080.00;;;3.12;83.75
62038;BME280;47991;42.974;12.082;2024-03-25T05:28:28;97074.85;;;4.09;81.97
62038;BME280;47991;42.974;12.082;2024-03-25T05:30:56;97071.55;;;4.87;79.17
62038;BME280;47991;42.974;12.082;2024-03-25T05:33:23;97079.54;;;5.68;77.32
62038;BME280;47991;42.974;12.082;2024-03-25T05:35:50;97078.63;;;6.29;76.04
62038;BME280;47991;42.974;12.082;2024-03-25T05:38:17;97086.13;;;6.77;73.10
62038;BME280;47991;42.974;12.082;2024-03-25T05:40:45;97090.86;;;7.33;70.78
62038;BME280;47991;42.974;12.082;2024-03-25T05:43:12;97089.70;;;8.01;70.29
62038;BME280;47991;42.974;12.082;2024-03-25T05:45:39;97088.90;;;8.69;69.32
62038;BME280;47991;42.974;12.082;2024-03-25T05:48:06;97090.16;;;8.80;68.29
62038;BME280;47991;42.974;12.082;2024-03-25T05:50:33;97091.23;;;9.11;68.77
62038;BME280;47991;42.974;12.082;2024-03-25T05:53:00;97088.03;;;9.98;64.93
62038;BME280;47991;42.974;12.082;2024-03-25T05:55:27;97091.04;;;10.95;62.91
62038;BME280;47991;42.974;12.082;2024-03-25T05:57:54;97087.16;;;12.02;61.74
62038;BME280;47991;42.974;12.082;2024-03-25T06:00:21;97083.85;;;12.82;59.81
62038;BME280;47991;42.974;12.082;2024-03-25T06:02:48;97083.61;;;13.34;56.61
62038;BME280;47991;42.974;12.082;2024-03-25T06:05:15;97083.63;;;13.41;56.14
62038;BME280;47991;42.974;12.082;2024-03-25T06:07:42;97082.46;;;13.17;58.23
62038;BME280;47991;42.974;12.082;2024-03-25T06:10:09;97087.63;;;13.28;57.66
62038;BME280;47991;42.974;12.082;2024-03-25T06:12:36;97090.53;;;14.16;54.83
62038;BME280;47991;42.974;12.082;2024-03-25T06:15:03;97093.83;;;14.68;51.28
62038;BME280;47991;42.974;12.082;2024-03-25T06:17:31;97092.86;;;15.16;50.99
62038;BME280;47991;42.974;12.082;2024-03-25T06:19:58;97087.33;;;16.30;51.34
62038;BME280;47991;42.974;12.082;2024-03-25T06:22:24;97085.66;;;16.62;46.61
62038;BME280;47991;42.974;12.082;2024-03-25T06:24:51;97087.48;;;16.28;46.71
62038;BME280;47991;42.974;12.082;2024-03-25T06:27:20;97096.11;;;15.55;49.09
62038;BME280;47991;42.974;12.082;2024-03-25T06:29:48;97092.16;;;14.42;55.62
62038;BME280;47991;42.974;12.082;2024-03-25T06:32:15;97098.16;;;13.19;55.77
62038;BME280;47991;42.974;12.082;2024-03-25T06:35:01;97104.47;;;12.07;57.43
62038;BME280;47991;42.974;12.082;2024-03-25T06:37:30;97109.86;;;11.45;60.59
62038;BME280;47991;42.974;12.082;2024-03-25T06:39:58;97111.63;;;10.84;61.84
62038;BME280;47991;42.974;12.082;2024-03-25T06:42:25;97110.05;;;10.23;63.61
62038;BME280;47991;42.974;12.082;2024-03-25T06:44:53;97112.53;;;9.64;64.17
62038;BME280;47991;42.974;12.082;2024-03-25T06:47:20;97116.71;;;9.36;65.72
62038;BME280;47991;42.974;12.082;2024-03-25T06:49:47;97116.49;;;9.15;67.15
62038;BME280;47991;42.974;12.082;2024-03-25T06:52:14;97119.41;;;8.91;68.19
62038;BME280;47991;42.974;12.082;2024-03-25T06:54:41;97113.02;;;8.97;67.24
62038;BME280;47991;42.974;12.082;2024-03-25T06:57:08;97115.84;;;9.19;66.64
62038;BME280;47991;42.974;12.082;2024-03-25T06:59:35;97118.80;;;9.42;65.99
62038;BME280;47991;42.974;12.082;2024-03-25T07:02:04;97119.02;;;9.75;65.69
62038;BME280;47991;42.974;12.082;2024-03-25T07:04:31;97124.50;;;10.00;65.34
62038;BME280;47991;42.974;12.082;2024-03-25T07:06:59;97132.25;;;9.45;66.64
62038;BME280;47991;42.974;12.082;2024-03-25T07:09:26;97127.27;;;9.20;67.82
62038;BME280;47991;42.974;12.082;2024-03-25T07:11:54;97123.11;;;9.12;68.08
62038;BME280;47991;42.974;12.082;2024-03-25T07:14:20;97121.29;;;9.14;68.80
62038;BME280;47991;42.974;12.082;2024-03-25T07:16:47;97123.17;;;9.27;67.95
62038;BME280;47991;42.974;12.082;2024-03-25T07:19:14;97127.91;;;9.27;67.69
62038;BME280;47991;42.974;12.082;2024-03-25T07:21:42;97130.32;;;9.24;67.88
62038;BME280;47991;42.974;12.082;2024-03-25T07:24:08;97132.55;;;9.42;67.61
62038;BME280;47991;42.974;12.082;2024-03-25T07:26:36;97133.90;;;9.53;67.25
62038;BME280;47991;42.974;12.082;2024-03-25T07:29:03;97134.02;;;9.50;68.24
62038;BME280;47991;42.974;12.082;2024-03-25T07:31:30;97132.76;;;9.51;68.63
62038;BME280;47991;42.974;12.082;2024-03-25T07:33:57;97131.77;;;9.59;67.77
62038;BME280;47991;42.974;12.082;2024-03-25T07:36:24;97127.79;;;9.67;68.16
62038;BME280;47991;42.974;12.082;2024-03-25T07:38:51;97129.43;;;9.86;67.23
62038;BME280;47991;42.974;12.082;2024-03-25T07:41:19;97139.84;;;9.96;67.42
62038;BME280;47991;42.974;12.082;2024-03-25T07:43:45;97140.23;;;10.00;67.21
62038;BME280;47991;42.974;12.082;2024-03-25T07:46:13;97134.48;;;10.07;68.10
62038;BME280;47991;42.974;12.082;2024-03-25T07:48:40;97132.05;;;10.01;68.15
62038;BME280;47991;42.974;12.082;2024-03-25T07:51:09;97134.55;;;9.91;70.56
62038;BME280;47991;42.974;12.082;2024-03-25T07:53:35;97131.54;;;9.81;71.41
62038;BME280;47991;42.974;12.082;2024-03-25T07:56:03;97125.06;;;9.89;71.26
62038;BME280;47991;42.974;12.082;2024-03-25T07:58:31;97120.57;;;10.36;69.96
62038;BME280;47991;42.974;12.082;2024-03-25T08:00:58;97126.88;;;10.96;67.48
62038;BME280;47991;42.974;12.082;2024-03-25T08:03:25;97124.29;;;11.38;65.38
62038;BME280;47991;42.974;12.082;2024-03-25T08:05:52;97119.63;;;11.31;65.41
62038;BME280;47991;42.974;12.082;2024-03-25T08:08:19;97117.27;;;11.20;65.31
62038;BME280;47991;42.974;12.082;2024-03-25T08:10:46;97115.61;;;10.95;65.20
62038;BME280;47991;42.974;12.082;2024-03-25T08:13:14;97114.05;;;10.85;65.62
62038;BME280;47991;42.974;12.082;2024-03-25T08:15:41;97109.98;;;10.85;65.89
62038;BME280;47991;42.974;12.082;2024-03-25T08:18:08;97107.61;;;10.79;66.51
62038;BME280;47991;42.974;12.082;2024-03-25T08:20:36;97109.20;;;10.74;66.00
62038;BME280;47991;42.974;12.082;2024-03-25T08:23:04;97116.42;;;10.70;66.22
62038;BME280;47991;42.974;12.082;2024-03-25T08:25:31;97120.47;;;10.79;66.59
62038;BME280;47991;42.974;12.082;2024-03-25T08:27:58;97114.54;;;11.00;66.18
62038;BME280;47991;42.974;12.082;2024-03-25T08:30:26;97107.17;;;11.20;65.59
62038;BME280;47991;42.974;12.082;2024-03-25T08:32:53;97110.75;;;11.36;64.83
62038;BME280;47991;42.974;12.082;2024-03-25T08:35:19;97118.86;;;11.49;64.75
62038;BME280;47991;42.974;12.082;2024-03-25T08:37:46;97122.11;;;11.56;62.76
62038;BME280;47991;42.974;12.082;2024-03-25T08:40:16;97115.23;;;11.60;62.97
62038;BME280;47991;42.974;12.082;2024-03-25T08:42:43;97114.77;;;11.75;62.59
62038;BME280;47991;42.974;12.082;2024-03-25T08:45:10;97112.20;;;11.98;62.60
62038;BME280;47991;42.974;12.082;2024-03-25T08:47:37;97112.59;;;12.17;61.49
62038;BME280;47991;42.974;12.082;2024-03-25T08:50:05;97109.36;;;12.33;60.16
62038;BME280;47991;42.974;12.082;2024-03-25T08:52:33;97105.69;;;12.47;59.17
62038;BME280;47991;42.974;12.082;2024-03-25T08:55:01;97096.11;;;12.59;59.79
62038;BME280;47991;42.974;12.082;2024-03-25T08:57:28;97099.88;;;12.66;58.84
62038;BME280;47991;42.974;12.082;2024-03-25T08:59:55;97096.11;;;12.66;58.93
62038;BME280;47991;42.974;12.082;2024-03-25T09:02:22;97094.27;;;12.79;59.39
62038;BME280;47991;42.974;12.082;2024-03-25T09:04:49;97086.15;;;12.96;60.21
62038;BME280;47991;42.974;12.082;2024-03-25T09:07:16;97081.46;;;13.20;58.00
62038;BME280;47991;42.974;12.082;2024-03-25T09:09:43;97087.12;;;13.31;57.94
62038;BME280;47991;42.974;12.082;2024-03-25T09:12:29;97093.44;;;13.40;53.89
62038;BME280;47991;42.974;12.082;2024-03-25T09:14:56;97087.27;;;13.39;55.85
62038;BME280;47991;42.974;12.082;2024-03-25T09:17:23;97090.86;;;13.49;54.31
62038;BME280;47991;42.974;12.082;2024-03-25T09:19:51;97093.13;;;13.60;54.19
62038;BME280;47991;42.974;12.082;2024-03-25T09:22:18;97088.67;;;13.64;52.72
62038;BME280;47991;42.974;12.082;2024-03-25T09:24:45;97088.82;;;13.82;53.80
62038;BME280;47991;42.974;12.082;2024-03-25T09:27:12;97091.85;;;13.95;51.97
62038;BME280;47991;42.974;12.082;2024-03-25T09:29:41;97087.27;;;14.14;52.80
62038;BME280;47991;42.974;12.082;2024-03-25T09:32:09;97082.80;;;14.31;53.33
62038;BME280;47991;42.974;12.082;2024-03-25T09:34:36;97086.34;;;14.51;52.38
62038;BME280;47991;42.974;12.082;2024-03-25T09:37:03;97088.73;;;14.73;50.31
62038;BME280;47991;42.974;12.082;2024-03-25T09:39:30;97090.58;;;14.69;46.60
62038;BME280;47991;42.974;12.082;2024-03-25T09:41:57;97091.71;;;14.77;48.68
62038;BME280;47991;42.974;12.082;2024-03-25T09:44:31;97087.48;;;14.83;47.05
62038;BME280;47991;42.974;12.082;2024-03-25T09:46:59;97088.04;;;14.86;46.42
62038;BME280;47991;42.974;12.082;2024-03-25T09:49:28;97088.13;;;15.03;46.91
62038;BME280;47991;42.974;12.082;2024-03-25T09:51:55;97082.89;;;14.95;44.90
62038;BME280;47991;42.974;12.082;2024-03-25T09:54:22;97085.40;;;15.10;47.30
62038;BME280;47991;42.974;12.082;2024-03-25T09:56:50;97082.63;;;15.39;46.20
62038;BME280;47991;42.974;12.082;2024-03-25T09:59:18;97080.95;;;15.56;45.58
62038;BME280;47991;42.974;12.082;2024-03-25T10:01:45;97076.88;;;15.62;43.70
62038;BME280;47991;42.974;12.082;2024-03-25T10:04:13;97079.17;;;15.65;44.33
62038;BME280;47991;42.974;12.082;2024-03-25T10:06:40;97073.30;;;15.71;44.62
62038;BME280;47991;42.974;12.082;2024-03-25T10:09:07;97064.05;;;15.91;43.84
62038;BME280;47991;42.974;12.082;2024-03-25T10:11:34;97059.30;;;16.17;44.02
62038;BME280;47991;42.974;12.082;2024-03-25T10:14:02;97062.54;;;16.42;43.82
62038;BME280;47991;42.974;12.082;2024-03-25T10:16:29;97060.95;;;16.67;43.51
62038;BME280;47991;42.974;12.082;2024-03-25T10:18:56;97051.83;;;16.78;41.15
62038;BME280;47991;42.974;12.082;2024-03-25T10:21:23;97045.69;;;16.96;41.67
62038;BME280;47991;42.974;12.082;2024-03-25T10:23:50;97037.92;;;17.22;41.72
62038;BME280;47991;42.974;12.082;2024-03-25T10:26:31;97040.52;;;17.26;40.06
62038;BME280;47991;42.974;12.082;2024-03-25T10:29:02;97037.55;;;16.84;36.46
62038;BME280;47991;42.974;12.082;2024-03-25T10:31:37;97026.21;;;16.12;30.68
62038;BME280;47991;42.974;12.082;2024-03-25T10:34:04;97020.72;;;16.15;34.76
62038;BME280;47991;42.974;12.082;2024-03-25T10:36:31;97019.46;;;16.29;32.97
62038;BME280;47991;42.974;12.082;2024-03-25T10:39:02;97016.38;;;15.99;27.67
62038;BME280;47991;42.974;12.082;2024-03-25T10:41:29;97007.28;;;16.13;28.68
62038;BME280;47991;42.974;12.082;2024-03-25T10:43:59;97013.59;;;16.03;26.70
62038;BME280;47991;42.974;12.082;2024-03-25T10:46:29;97006.54;;;15.93;25.48
62038;BME280;47991;42.974;12.082;2024-03-25T10:49:01;97006.55;;;15.69;24.08
62038;BME280;47991;42.974;12.082;2024-03-25T10:51:31;97001.02;;;15.75;25.68
62038;BME280;47991;42.974;12.082;2024-03-25T10:53:59;96997.88;;;15.86;24.82
62038;BME280;47991;42.974;12.082;2024-03-25T10:56:27;96997.45;;;15.67;25.20
62038;BME280;47991;42.974;12.082;2024-03-25T10:58:54;96991.24;;;15.98;29.88
62038;BME280;47991;42.974;12.082;2024-03-25T11:01:23;96978.48;;;16.23;30.94
62038;BME280;47991;42.974;12.082;2024-03-25T11:03:50;96968.88;;;16.19;30.13
62038;BME280;47991;42.974;12.082;2024-03-25T11:06:18;96968.08;;;16.18;30.24
62038;BME280;47991;42.974;12.082;2024-03-25T11:08:56;96969.25;;;15.79;26.84
62038;BME280;47991;42.974;12.082;2024-03-25T11:11:31;96969.61;;;15.35;25.64
62038;BME280;47991;42.974;12.082;2024-03-25T11:14:03;96965.98;;;15.12;25.67
62038;BME280;47991;42.974;12.082;2024-03-25T11:16:31;96970.36;;;15.10;24.84
62038;BME280;47991;42.974;12.082;2024-03-25T11:19:02;96972.18;;;15.07;26.26
62038;BME280;47991;42.974;12.082;2024-03-25T11:21:30;96958.64;;;15.19;26.70
62038;BME280;47991;42.974;12.082;2024-03-25T11:24:06;96956.85;;;15.31;27.55
62038;BME280;47991;42.974;12.082;2024-03-25T11:26:41;96970.78;;;15.30;25.05
62038;BME280;47991;42.974;12.082;2024-03-25T11:33:06;96963.06;;;15.46;23.10
62038;BME280;47991;42.974;12.082;2024-03-25T11:35:40;96957.35;;;15.67;22.51
62038;BME280;47991;42.974;12.082;2024-03-25T11:38:07;96954.88;;;15.31;20.75
62038;BME280;47991;42.974;12.082;2024-03-25T11:40:35;96953.38;;;15.27;22.60
62038;BME280;47991;42.974;12.082;2024-03-25T11:43:03;96952.76;;;15.25;20.33
62038;BME280;47991;42.974;12.082;2024-03-25T11:45:31;96948.23;;;15.32;20.90
62038;BME280;47991;42.974;12.082;2024-03-25T11:47:58;96935.50;;;15.43;20.85
62038;BME280;47991;42.974;12.082;2024-03-25T11:50:26;96936.01;;;15.60;22.74
62038;BME280;47991;42.974;12.082;2024-03-25T11:52:53;96929.89;;;15.44;21.55
62038;BME280;47991;42.974;12.082;2024-03-25T11:55:20;96920.02;;;15.28;22.40
62038;BME280;47991;42.974;12.082;2024-03-25T11:57:54;96920.64;;;15.17;22.08
62038;BME280;47991;42.974;12.082;2024-03-25T12:00:23;96917.73;;;15.19;22.63
62038;BME280;47991;42.974;12.082;2024-03-25T12:02:50;96913.76;;;15.28;22.82
62038;BME280;47991;42.974;12.082;2024-03-25T12:05:19;96911.25;;;15.60;25.50
62038;BME280;47991;42.974;12.082;2024-03-25T12:07:46;96909.76;;;16.07;26.12
62038;BME280;47991;42.974;12.082;2024-03-25T12:10:13;96898.42;;;16.44;26.14
62038;BME280;47991;42.974;12.082;2024-03-25T12:12:58;96889.46;;;16.56;23.98
62038;BME280;47991;42.974;12.082;2024-03-25T12:15:25;96890.60;;;16.58;24.08
62038;BME280;47991;42.974;12.082;2024-03-25T12:17:53;96886.45;;;16.72;24.51
62038;BME280;47991;42.974;12.082;2024-03-25T12:20:20;96888.27;;;16.90;24.41
62038;BME280;47991;42.974;12.082;2024-03-25T12:22:48;96884.33;;;17.11;23.97
62038;BME280;47991;42.974;12.082;2024-03-25T12:25:15;96883.23;;;17.22;23.32
62038;BME280;47991;42.974;12.082;2024-03-25T12:27:46;96876.70;;;17.41;24.13
62038;BME280;47991;42.974;12.082;2024-03-25T12:30:13;96875.73;;;17.65;22.32
62038;BME280;47991;42.974;12.082;2024-03-25T12:32:42;96871.42;;;17.78;23.11
62038;BME280;47991;42.974;12.082;2024-03-25T12:35:15;96869.80;;;18.28;23.32
62038;BME280;47991;42.974;12.082;2024-03-25T12:37:44;96864.37;;;18.80;22.07
62038;BME280;47991;42.974;12.082;2024-03-25T12:40:13;96856.27;;;19.22;21.74
62038;BME280;47991;42.974;12.082;2024-03-25T12:42:41;96854.29;;;19.48;22.92
62038;BME280;47991;42.974;12.082;2024-03-25T12:45:09;96856.64;;;19.65;22.57
62038;BME280;47991;42.974;12.082;2024-03-25T12:47:36;96845.34;;;19.72;22.33
62038;BME280;47991;42.974;12.082;2024-03-25T12:50:03;96845.48;;;19.68;22.68
62038;BME280;47991;42.974;12.082;2024-03-25T12:52:38;96844.16;;;19.17;20.87
62038;BME280;47991;42.974;12.082;2024-03-25T12:55:06;96841.52;;;18.59;21.32
62038;BME280;47991;42.974;12.082;2024-03-25T12:57:33;96837.39;;;18.59;22.98
62038;BME280;47991;42.974;12.082;2024-03-25T13:00:00;96834.11;;;19.01;24.53
62038;BME280;47991;42.974;12.082;2024-03-25T13:02:27;96835.42;;;19.21;23.51